createdAt,value
2024-05-09T00:00:49.935Z,6.13
2024-05-09T00:03:00.911Z,7.30
2024-05-09T00:05:22.449Z,4.53
2024-05-09T00:07:32.783Z,5.70
2024-05-09T00:09:43.115Z,5.27
2024-05-09T00:11:53.553Z,4.37
2024-05-09T00:14:04.024Z,4.83
2024-05-09T00:16:14.369Z,4.47
2024-05-09T00:18:24.912Z,4.27
2024-05-09T00:20:40.732Z,3.40
2024-05-09T00:22:51.739Z,5.03
2024-05-09T00:25:02.062Z,5.17
2024-05-09T00:27:13.442Z,4.80
2024-05-09T00:29:24.734Z,6.10
2024-05-09T00:31:35.146Z,5.20
2024-05-09T00:33:45.548Z,4.97
2024-05-09T00:35:58.573Z,4.63
2024-05-09T00:38:08.931Z,5.47
2024-05-09T00:40:27.255Z,4.77
2024-05-09T00:42:45.857Z,5.33
2024-05-09T00:44:56.541Z,4.53
2024-05-09T00:47:07.538Z,5.40
2024-05-09T00:49:18.241Z,5.40
2024-05-09T00:51:31.354Z,4.70
2024-05-09T00:53:41.809Z,5.97
2024-05-09T00:55:52.131Z,4.20
2024-05-09T00:58:02.565Z,3.87
2024-05-09T01:00:22.599Z,4.80
2024-05-09T01:02:41.944Z,3.23
2024-05-09T01:04:53.524Z,4.10
2024-05-09T01:07:06.698Z,4.50
2024-05-09T01:09:17.050Z,6.43
2024-05-09T01:11:27.427Z,6.10
2024-05-09T01:13:35.124Z,6.27
2024-05-09T01:15:45.567Z,4.97
2024-05-09T01:17:56.918Z,4.10
2024-05-09T01:20:10.670Z,5.87
2024-05-09T01:22:27.172Z,4.13
2024-05-09T01:24:40.059Z,8.50
2024-05-09T01:26:50.580Z,6.07
2024-05-09T01:29:00.891Z,8.43
2024-05-09T01:31:15.842Z,5.10
2024-05-09T01:33:26.458Z,5.97
2024-05-09T01:35:37.137Z,5.70
2024-05-09T01:37:47.704Z,7.03
2024-05-09T01:40:00.670Z,4.97
2024-05-09T01:42:11.004Z,5.63
2024-05-09T01:44:21.409Z,6.27
2024-05-09T01:46:31.751Z,5.83
2024-05-09T01:48:42.152Z,5.93
2024-05-09T01:50:52.495Z,4.83
2024-05-09T01:53:02.867Z,5.63
2024-05-09T01:55:15.939Z,5.47
2024-05-09T01:57:26.238Z,4.23
2024-05-09T01:59:36.680Z,6.70
2024-05-09T02:01:56.546Z,6.03
2024-05-09T02:04:08.422Z,7.80
2024-05-09T02:06:18.857Z,4.40
2024-05-09T02:08:29.262Z,5.30
2024-05-09T02:10:42.320Z,6.40
2024-05-09T02:12:52.642Z,4.97
2024-05-09T02:15:02.884Z,5.33
2024-05-09T02:17:13.274Z,3.90
2024-05-09T02:19:23.794Z,5.07
2024-05-09T02:21:34.519Z,4.63
2024-05-09T02:23:44.911Z,5.07
2024-05-09T02:25:57.974Z,5.90
2024-05-09T02:28:08.621Z,5.47
2024-05-09T02:30:26.217Z,6.83
2024-05-09T02:32:46.451Z,4.43
2024-05-09T02:34:56.969Z,5.47
2024-05-09T02:37:04.731Z,8.60
2024-05-09T02:39:15.011Z,5.73
2024-05-09T02:41:25.373Z,5.50
2024-05-09T02:43:35.622Z,5.17
2024-05-09T02:45:43.405Z,6.57
2024-05-09T02:47:53.780Z,5.73
2024-05-09T02:50:01.506Z,5.90
2024-05-09T02:52:11.813Z,6.77
2024-05-09T02:54:19.407Z,5.93
2024-05-09T02:56:29.783Z,5.33
2024-05-09T02:58:40.222Z,5.17
2024-05-09T03:00:48.029Z,6.30
2024-05-09T03:02:58.543Z,5.80
2024-05-09T03:05:06.589Z,8.33
2024-05-09T03:07:20.077Z,7.47
2024-05-09T03:09:28.157Z,4.63
2024-05-09T03:11:41.251Z,7.63
2024-05-09T03:13:48.979Z,6.67
2024-05-09T03:15:59.429Z,8.57
2024-05-09T03:18:07.660Z,6.07
2024-05-09T03:20:23.755Z,5.07
2024-05-09T03:22:35.273Z,8.73
2024-05-09T03:24:45.559Z,4.40
2024-05-09T03:26:55.964Z,7.93
2024-05-09T03:29:06.392Z,8.93
2024-05-09T03:31:14.121Z,5.57
2024-05-09T03:33:24.662Z,7.47
2024-05-09T03:35:32.431Z,6.83
2024-05-09T03:37:42.740Z,5.57
2024-05-09T03:39:53.341Z,5.97
2024-05-09T03:42:06.505Z,7.07
2024-05-09T03:44:16.906Z,6.10
2024-05-09T03:46:24.612Z,9.30
2024-05-09T03:48:37.873Z,6.30
2024-05-09T03:50:45.648Z,6.77
2024-05-09T03:52:55.934Z,7.67
2024-05-09T03:55:03.608Z,7.00
2024-05-09T03:57:16.603Z,9.73
2024-05-09T03:59:24.381Z,8.53
2024-05-09T04:01:34.816Z,5.57
2024-05-09T04:03:42.678Z,8.00
2024-05-09T04:05:53.145Z,7.30
2024-05-09T04:08:00.982Z,9.83
2024-05-09T04:10:20.930Z,7.13
2024-05-09T04:12:39.527Z,13.53
2024-05-09T04:14:49.736Z,5.63
2024-05-09T04:16:57.418Z,5.97
2024-05-09T04:19:07.881Z,10.27
2024-05-09T04:21:15.967Z,10.10
2024-05-09T04:23:26.421Z,8.80
2024-05-09T04:25:34.213Z,10.10
2024-05-09T04:27:47.455Z,7.63
2024-05-09T04:29:55.067Z,6.40
2024-05-09T04:32:05.403Z,6.23
2024-05-09T04:34:13.163Z,5.93
2024-05-09T04:36:23.939Z,9.17
2024-05-09T04:38:31.568Z,9.07
2024-05-09T04:40:41.992Z,6.37
2024-05-09T04:42:52.247Z,10.57
2024-05-09T04:45:02.496Z,6.97
2024-05-09T04:47:10.268Z,8.17
2024-05-09T04:49:18.272Z,8.33
2024-05-09T04:51:28.758Z,10.30
2024-05-09T04:53:36.641Z,7.37
2024-05-09T04:55:47.059Z,7.83
2024-05-09T04:57:57.638Z,6.00
2024-05-09T05:00:14.608Z,5.70
2024-05-09T05:02:25.823Z,7.70
2024-05-09T05:04:36.281Z,6.07
2024-05-09T05:06:43.953Z,5.67
2024-05-09T05:08:54.578Z,9.43
2024-05-09T05:11:02.415Z,7.30
2024-05-09T05:13:20.819Z,6.13
2024-05-09T05:15:29.695Z,4.83
2024-05-09T05:17:40.097Z,6.37
2024-05-09T05:19:48.018Z,6.03
2024-05-09T05:21:58.396Z,7.83
2024-05-09T05:24:06.670Z,6.87
2024-05-09T05:26:20.578Z,7.90
2024-05-09T05:28:30.914Z,4.97
2024-05-09T05:30:41.491Z,5.17
2024-05-09T05:32:49.234Z,6.53
2024-05-09T05:34:59.528Z,5.20
2024-05-09T05:37:07.237Z,6.00
2024-05-09T05:39:17.953Z,8.27
2024-05-09T05:41:25.595Z,8.43
2024-05-09T05:43:38.529Z,6.03
2024-05-09T05:45:46.556Z,6.53
2024-05-09T05:47:57.405Z,8.87
2024-05-09T05:50:11.730Z,7.27
2024-05-09T05:52:28.027Z,8.83
2024-05-09T05:54:35.639Z,5.43
2024-05-09T05:56:45.981Z,7.83
2024-05-09T05:58:56.606Z,8.20
2024-05-09T06:01:07.602Z,7.10
2024-05-09T06:03:15.538Z,7.80
2024-05-09T06:05:27.670Z,6.07
2024-05-09T06:07:35.507Z,4.50
2024-05-09T06:09:48.207Z,12.07
2024-05-09T06:11:57.624Z,7.37
2024-05-09T06:14:10.674Z,6.70
2024-05-09T06:16:18.319Z,5.80
2024-05-09T06:18:28.802Z,6.07
2024-05-09T06:20:38.267Z,8.10
2024-05-09T06:22:48.979Z,4.50
2024-05-09T06:24:56.682Z,6.93
2024-05-09T06:27:07.234Z,7.60
2024-05-09T06:29:17.664Z,8.17
2024-05-09T06:31:28.013Z,6.97
2024-05-09T06:33:36.041Z,4.47
2024-05-09T06:35:46.690Z,7.37
2024-05-09T06:37:54.432Z,7.07
2024-05-09T06:40:07.278Z,7.57
2024-05-09T06:42:15.151Z,3.63
2024-05-09T06:44:28.333Z,4.70
2024-05-09T06:46:37.487Z,6.57
2024-05-09T06:48:48.698Z,4.17
2024-05-09T06:50:56.767Z,5.53
2024-05-09T06:53:07.468Z,7.20
2024-05-09T06:55:15.324Z,8.17
2024-05-09T06:57:25.620Z,4.27
2024-05-09T06:59:36.011Z,6.67
2024-05-09T07:01:46.364Z,4.83
2024-05-09T07:03:54.180Z,7.80
2024-05-09T07:06:04.649Z,4.80
2024-05-09T07:08:12.685Z,5.67
2024-05-09T07:10:28.939Z,8.23
2024-05-09T07:12:44.467Z,5.97
2024-05-09T07:14:54.721Z,4.43
2024-05-09T07:17:05.065Z,4.53
2024-05-09T07:19:12.946Z,7.47
2024-05-09T07:21:23.427Z,5.90
2024-05-09T07:23:31.074Z,5.43
2024-05-09T07:25:41.658Z,3.97
2024-05-09T07:27:49.353Z,6.07
2024-05-09T07:30:03.915Z,3.63
2024-05-09T07:32:13.263Z,4.40
2024-05-09T07:34:23.826Z,5.33
2024-05-09T07:36:31.639Z,4.57
2024-05-09T07:38:41.886Z,5.77
2024-05-09T07:40:49.805Z,4.47
2024-05-09T07:43:00.100Z,4.53
2024-05-09T07:45:29.646Z,3.63
2024-05-09T07:49:12.439Z,3.40
2024-05-09T07:53:30.483Z,5.47
2024-05-09T07:54:51.241Z,5.73
2024-05-09T07:57:02.010Z,5.23
2024-05-09T07:59:09.755Z,8.07
2024-05-09T08:01:24.696Z,3.93
2024-05-09T08:03:32.745Z,4.47
2024-05-09T08:05:43.297Z,3.17
2024-05-09T08:07:50.996Z,4.70
2024-05-09T08:10:01.285Z,5.20
2024-05-09T08:12:09.529Z,4.33
2024-05-09T08:14:19.959Z,6.33
2024-05-09T08:16:30.311Z,4.40
2024-05-09T08:18:40.763Z,3.67
2024-05-09T08:20:49.925Z,5.17
2024-05-09T08:23:00.219Z,3.17
2024-05-09T08:25:09.290Z,3.10
2024-05-09T08:27:20.470Z,3.63
2024-05-09T08:29:28.251Z,4.47
2024-05-09T08:31:43.065Z,4.33
2024-05-09T08:33:51.847Z,4.67
2024-05-09T08:36:02.238Z,4.10
2024-05-09T08:38:09.922Z,6.70
2024-05-09T08:40:28.109Z,4.07
2024-05-09T08:42:45.038Z,5.03
2024-05-09T08:44:55.729Z,4.43
2024-05-09T08:47:09.327Z,3.53
2024-05-09T08:49:19.782Z,3.67
2024-05-09T08:51:27.561Z,4.07
2024-05-09T08:53:37.951Z,7.67
2024-05-09T08:55:46.587Z,5.63
2024-05-09T08:57:57.295Z,4.97
2024-05-09T09:00:10.025Z,4.00
2024-05-09T09:02:26.035Z,4.00
2024-05-09T09:04:36.552Z,6.87
2024-05-09T09:06:47.947Z,3.27
2024-05-09T09:08:55.870Z,4.40
2024-05-09T09:11:06.353Z,3.77
2024-05-09T09:13:15.792Z,2.60
2024-05-09T09:15:26.310Z,3.63
2024-05-09T09:17:36.980Z,3.03
2024-05-09T09:19:47.493Z,3.63
2024-05-09T09:21:55.272Z,4.40
2024-05-09T09:24:09.366Z,4.30
2024-05-09T09:26:17.627Z,3.20
2024-05-09T09:28:28.127Z,5.43
2024-05-09T09:30:37.952Z,3.73
2024-05-09T09:32:52.544Z,3.43
2024-05-09T09:35:00.387Z,3.17
2024-05-09T09:37:11.859Z,5.67
2024-05-09T09:39:19.828Z,4.07
2024-05-09T09:41:33.508Z,3.00
2024-05-09T09:43:41.709Z,5.10
2024-05-09T09:45:55.361Z,3.57
2024-05-09T09:48:06.788Z,5.63
2024-05-09T09:50:24.074Z,4.77
2024-05-09T09:52:39.527Z,4.97
2024-05-09T09:54:51.654Z,4.13
2024-05-09T09:56:59.645Z,6.97
2024-05-09T09:59:10.493Z,3.10
2024-05-09T10:01:18.229Z,4.20
2024-05-09T10:03:31.397Z,2.90
2024-05-09T10:05:42.110Z,4.40
2024-05-09T10:07:54.873Z,4.37
2024-05-09T10:10:02.708Z,2.97
2024-05-09T10:12:13.753Z,6.23
2024-05-09T10:14:22.070Z,3.30
2024-05-09T10:16:35.080Z,3.27
2024-05-09T10:18:46.672Z,6.23
2024-05-09T10:20:57.225Z,4.57
2024-05-09T10:23:05.529Z,3.47
2024-05-09T10:25:15.913Z,5.33
2024-05-09T10:27:27.418Z,5.03
2024-05-09T10:29:37.817Z,5.53
2024-05-09T10:31:46.253Z,4.87
2024-05-09T10:33:59.669Z,5.53
2024-05-09T10:36:11.955Z,4.97
2024-05-09T10:38:22.247Z,3.97
2024-05-09T10:40:31.737Z,4.37
2024-05-09T10:42:42.590Z,5.63
2024-05-09T10:44:50.316Z,5.27
2024-05-09T10:47:00.603Z,4.57
2024-05-09T10:49:11.819Z,3.57
2024-05-09T10:51:22.593Z,6.17
2024-05-09T10:53:30.365Z,6.00
2024-05-09T10:55:40.621Z,6.20
2024-05-09T10:57:48.268Z,4.10
2024-05-09T10:59:59.088Z,5.13
2024-05-09T11:02:08.110Z,3.50
2024-05-09T11:04:21.621Z,4.87
2024-05-09T11:06:29.783Z,3.73
2024-05-09T11:08:40.746Z,3.90
2024-05-09T11:10:49.776Z,7.47
2024-05-09T11:13:00.278Z,5.17
2024-05-09T11:15:08.029Z,4.37
2024-05-09T11:17:18.369Z,4.23
2024-05-09T11:19:30.109Z,5.30
2024-05-09T11:21:40.694Z,6.70
2024-05-09T11:23:48.699Z,5.57
2024-05-09T11:26:00.349Z,5.17
2024-05-09T11:28:08.263Z,4.97
2024-05-09T11:30:27.007Z,7.90
2024-05-09T11:32:39.462Z,3.83
2024-05-09T11:34:52.597Z,2.97
2024-05-09T11:37:00.342Z,4.30
2024-05-09T11:39:11.880Z,2.90
2024-05-09T11:41:19.664Z,2.90
2024-05-09T11:43:30.074Z,4.77
2024-05-09T11:45:37.906Z,2.57
2024-05-09T11:47:48.632Z,4.73
2024-05-09T11:49:59.276Z,2.90
2024-05-09T11:52:09.958Z,3.20
2024-05-09T11:54:17.669Z,4.00
2024-05-09T11:56:27.995Z,2.63
2024-05-09T11:58:39.585Z,2.80
2024-05-09T12:00:50.152Z,3.93
2024-05-09T12:02:59.086Z,3.87
2024-05-09T12:05:12.240Z,5.23
2024-05-09T12:07:20.147Z,3.97
2024-05-09T12:09:32.025Z,2.77
2024-05-09T12:11:39.990Z,3.07
2024-05-09T12:13:50.362Z,4.07
2024-05-09T12:15:58.046Z,3.43
2024-05-09T12:18:08.790Z,5.60
2024-05-09T12:20:28.292Z,3.10
2024-05-09T12:22:46.265Z,3.37
2024-05-09T12:24:54.048Z,2.93
2024-05-09T12:27:04.403Z,3.07
2024-05-09T12:29:12.130Z,3.60
2024-05-09T12:31:22.607Z,4.23
2024-05-09T12:33:30.485Z,4.70
2024-05-09T12:35:46.481Z,4.73
2024-05-09T12:37:55.454Z,2.87
2024-05-09T12:40:12.714Z,3.73
2024-05-09T12:42:27.954Z,6.93
2024-05-09T12:44:39.880Z,3.67
2024-05-09T12:46:47.644Z,3.13
2024-05-09T12:48:58.300Z,3.70
2024-05-09T12:51:09.089Z,3.33
2024-05-09T12:53:19.427Z,3.77
2024-05-09T12:55:28.342Z,4.17
2024-05-09T12:57:40.182Z,3.40
2024-05-09T12:59:47.841Z,5.40
2024-05-09T13:02:00.528Z,3.57
2024-05-09T13:04:09.164Z,3.40
2024-05-09T13:06:22.259Z,3.40
2024-05-09T13:08:30.100Z,5.30
2024-05-09T13:10:40.770Z,3.80
2024-05-09T13:12:48.658Z,4.17
2024-05-09T13:14:59.007Z,6.00
2024-05-09T13:17:06.792Z,4.60
2024-05-09T13:19:14.549Z,3.20
2024-05-09T13:21:27.652Z,3.90
2024-05-09T13:23:36.979Z,4.00
2024-05-09T13:25:47.393Z,4.77
2024-05-09T13:27:55.508Z,3.53
2024-05-09T13:30:07.778Z,3.43
2024-05-09T13:32:19.525Z,3.30
2024-05-09T13:34:30.284Z,3.30
2024-05-09T13:36:40.759Z,5.23
2024-05-09T13:38:51.147Z,3.27
2024-05-09T13:40:58.901Z,4.87
2024-05-09T13:43:09.470Z,5.17
2024-05-09T13:45:17.130Z,3.27
2024-05-09T13:47:27.853Z,3.67
2024-05-09T13:49:35.754Z,5.90
2024-05-09T13:51:48.841Z,4.30
2024-05-09T13:53:59.410Z,3.80
2024-05-09T13:56:10.311Z,3.70
2024-05-09T13:58:18.551Z,3.63
2024-05-09T14:00:41.866Z,3.73
2024-05-09T14:02:55.071Z,5.13
2024-05-09T14:05:05.764Z,6.03
2024-05-09T14:07:16.622Z,4.73
2024-05-09T14:09:27.664Z,4.43
2024-05-09T14:11:35.481Z,5.07
2024-05-09T14:13:47.985Z,3.93
2024-05-09T14:15:55.903Z,4.13
2024-05-09T14:18:08.704Z,3.57
2024-05-09T14:20:28.253Z,6.93
2024-05-09T14:22:44.962Z,3.70
2024-05-09T14:24:53.153Z,3.97
2024-05-09T14:27:04.031Z,4.57
2024-05-09T14:29:11.742Z,3.33
2024-05-09T14:31:22.495Z,4.83
2024-05-09T14:33:30.983Z,4.83
2024-05-09T14:35:41.805Z,3.30
2024-05-09T14:37:52.711Z,4.67
2024-05-09T14:40:06.960Z,3.80
2024-05-09T14:42:16.430Z,4.37
2024-05-09T14:44:27.183Z,4.37
2024-05-09T14:46:36.137Z,4.83
2024-05-09T14:48:46.738Z,6.07
2024-05-09T14:50:55.245Z,3.37
2024-05-09T14:53:08.768Z,3.43
2024-05-09T14:55:16.757Z,5.87
2024-05-09T14:57:27.396Z,5.07
2024-05-09T14:59:35.235Z,5.27
2024-05-09T15:01:46.232Z,4.07
2024-05-09T15:03:54.771Z,3.60
2024-05-09T15:06:05.293Z,3.27
2024-05-09T15:08:17.850Z,4.87
2024-05-09T15:10:34.542Z,5.30
2024-05-09T15:12:44.112Z,4.30
2024-05-09T15:14:54.803Z,4.80
2024-05-09T15:17:02.598Z,4.37
2024-05-09T15:19:13.358Z,4.10
2024-05-09T15:21:21.157Z,5.73
2024-05-09T15:23:34.250Z,3.70
2024-05-09T15:25:42.456Z,4.10
2024-05-09T15:27:53.016Z,4.47
2024-05-09T15:30:03.253Z,5.53
2024-05-09T15:32:14.835Z,4.17
2024-05-09T15:34:22.583Z,5.17
2024-05-09T15:36:33.404Z,5.63
2024-05-09T15:38:44.077Z,4.70
2024-05-09T15:40:55.068Z,4.50
2024-05-09T15:43:03.174Z,4.00
2024-05-09T15:45:14.133Z,5.20
2024-05-09T15:47:22.056Z,4.23
2024-05-09T15:49:32.984Z,6.53
2024-05-09T15:51:40.870Z,4.80
2024-05-09T15:53:54.604Z,4.80
2024-05-09T15:56:02.467Z,6.60
2024-05-09T15:58:13.258Z,5.23
2024-05-09T16:00:28.748Z,6.23
2024-05-09T16:02:47.019Z,6.83
2024-05-09T16:04:54.962Z,9.53
2024-05-09T16:07:05.549Z,5.53
2024-05-09T16:09:16.365Z,7.13
2024-05-09T16:11:27.217Z,5.77
2024-05-09T16:13:35.049Z,10.30
2024-05-09T16:15:46.854Z,6.53
2024-05-09T16:17:55.422Z,5.87
2024-05-09T16:20:12.309Z,5.73
2024-05-09T16:22:23.197Z,4.80
2024-05-09T16:24:36.469Z,4.97
2024-05-09T16:26:45.436Z,5.77
2024-05-09T16:28:56.121Z,5.27
2024-05-09T16:31:04.269Z,5.50
2024-05-09T16:33:14.875Z,7.00
2024-05-09T16:35:22.599Z,7.30
2024-05-09T16:37:33.759Z,5.13
2024-05-09T16:39:44.245Z,6.23
2024-05-09T16:41:55.569Z,6.77
2024-05-09T16:44:04.410Z,8.17
2024-05-09T16:46:14.891Z,5.53
2024-05-09T16:48:23.075Z,6.23
2024-05-09T16:50:35.721Z,6.20
2024-05-09T16:52:44.053Z,7.20
2024-05-09T16:54:57.312Z,7.57
2024-05-09T16:57:05.284Z,6.17
2024-05-09T16:59:15.736Z,6.57
2024-05-09T17:01:23.514Z,8.67
2024-05-09T17:03:34.192Z,5.80
2024-05-09T17:05:42.773Z,8.07
2024-05-09T17:07:53.431Z,7.93
2024-05-09T17:10:04.048Z,7.03
2024-05-09T17:12:15.383Z,7.77
2024-05-09T17:14:25.778Z,7.43
2024-05-09T17:16:33.658Z,9.23
2024-05-09T17:18:44.602Z,6.73
2024-05-09T17:20:52.633Z,7.37
2024-05-09T17:23:03.171Z,8.87
2024-05-09T17:25:13.944Z,8.87
2024-05-09T17:27:24.400Z,8.40
2024-05-09T17:29:32.337Z,9.20
2024-05-09T17:31:42.921Z,9.07
2024-05-09T17:33:50.891Z,9.27
2024-05-09T17:36:01.495Z,8.57
2024-05-09T17:38:09.289Z,11.20
2024-05-09T17:40:30.861Z,11.90
2024-05-09T17:42:42.624Z,11.87
2024-05-09T17:44:53.036Z,9.80
2024-05-09T17:47:00.866Z,10.40
2024-05-09T17:49:11.391Z,11.03
2024-05-09T17:51:19.136Z,8.90
2024-05-09T17:53:29.478Z,11.13
2024-05-09T17:55:40.420Z,10.50
2024-05-09T17:57:51.103Z,9.70
2024-05-09T17:59:58.850Z,9.67
2024-05-09T18:02:09.571Z,10.00
2024-05-09T18:04:18.789Z,12.10
2024-05-09T18:06:29.131Z,11.53
2024-05-09T18:08:36.924Z,12.23
2024-05-09T18:10:51.965Z,11.00
2024-05-09T18:13:00.596Z,12.83
2024-05-09T18:15:11.206Z,11.47
2024-05-09T18:17:22.332Z,12.33
2024-05-09T18:19:34.131Z,10.47
2024-05-09T18:21:41.974Z,10.90
2024-05-09T18:23:54.914Z,9.00
2024-05-09T18:26:08.663Z,11.43
2024-05-09T18:28:19.266Z,11.27
2024-05-09T18:30:32.485Z,11.87
2024-05-09T18:32:45.701Z,12.17
2024-05-09T18:34:53.484Z,12.80
2024-05-09T18:37:04.855Z,10.40
2024-05-09T18:39:12.575Z,12.83
2024-05-09T18:41:25.589Z,12.60
2024-05-09T18:43:38.537Z,12.37
2024-05-09T18:45:55.188Z,12.53
2024-05-09T18:48:05.768Z,12.83
2024-05-09T18:50:24.643Z,11.97
2024-05-09T18:52:40.203Z,12.37
2024-05-09T18:54:50.588Z,11.53
2024-05-09T18:57:01.050Z,11.87
2024-05-09T18:59:11.406Z,13.20
2024-05-09T19:01:19.153Z,12.80
2024-05-09T19:03:30.383Z,13.13
2024-05-09T19:05:38.569Z,11.83
2024-05-09T19:07:49.143Z,13.03
2024-05-09T19:09:56.848Z,11.10
2024-05-09T19:12:10.213Z,14.37
2024-05-09T19:14:18.151Z,12.50
2024-05-09T19:16:28.899Z,11.57
2024-05-09T19:18:37.040Z,13.10
2024-05-09T19:20:47.594Z,11.40
2024-05-09T19:22:55.287Z,13.03
2024-05-09T19:25:07.163Z,14.60
2024-05-09T19:27:20.358Z,14.17
2024-05-09T19:29:28.006Z,13.87
2024-05-09T19:31:38.401Z,13.73
2024-05-09T19:33:46.363Z,12.50
2024-05-09T19:35:56.807Z,15.73
2024-05-09T19:38:05.237Z,14.03
2024-05-09T19:40:24.528Z,12.53
2024-05-09T19:42:40.610Z,15.67
2024-05-09T19:44:51.347Z,15.53
2024-05-09T19:46:59.042Z,16.40
2024-05-09T19:49:09.598Z,14.97
2024-05-09T19:51:17.453Z,15.77
2024-05-09T19:53:28.505Z,14.63
2024-05-09T19:55:36.139Z,13.20
2024-05-09T19:57:49.394Z,14.70
2024-05-09T19:59:57.285Z,16.90
2024-05-09T20:02:08.235Z,16.80
2024-05-09T20:04:16.170Z,15.17
2024-05-09T20:06:28.266Z,14.37
2024-05-09T20:08:35.997Z,12.77
2024-05-09T20:10:46.703Z,14.63
2024-05-09T20:12:57.475Z,16.60
2024-05-09T20:15:08.218Z,16.73
2024-05-09T20:17:16.106Z,19.47
2024-05-09T20:19:26.624Z,13.87
2024-05-09T20:21:34.479Z,16.60
2024-05-09T20:23:45.172Z,17.53
2024-05-09T20:25:52.811Z,17.40
2024-05-09T20:28:06.179Z,16.73
2024-05-09T20:30:20.932Z,16.70
2024-05-09T20:32:35.691Z,17.67
2024-05-09T20:34:43.471Z,15.17
2024-05-09T20:36:54.009Z,16.70
2024-05-09T20:39:01.744Z,17.43
2024-05-09T20:41:12.279Z,17.13
2024-05-09T20:43:22.959Z,16.30
2024-05-09T20:45:34.121Z,16.73
2024-05-09T20:47:42.001Z,16.77
2024-05-09T20:49:52.380Z,15.30
2024-05-09T20:52:00.189Z,15.60
2024-05-09T20:54:10.692Z,17.67
2024-05-09T20:56:22.352Z,17.33
2024-05-09T20:58:35.492Z,19.10
2024-05-09T21:00:45.786Z,16.33
2024-05-09T21:02:57.056Z,17.37
2024-05-09T21:05:05.034Z,19.37
2024-05-09T21:07:16.114Z,17.77
2024-05-09T21:09:25.800Z,17.00
2024-05-09T21:11:36.157Z,21.60
2024-05-09T21:13:46.505Z,18.27
2024-05-09T21:15:56.895Z,17.30
2024-05-09T21:18:05.242Z,16.47
2024-05-09T21:20:20.293Z,17.27
2024-05-09T21:22:31.688Z,18.27
2024-05-09T21:24:42.037Z,19.53
2024-05-09T21:26:49.838Z,19.47
2024-05-09T21:29:02.767Z,21.53
2024-05-09T21:31:10.480Z,17.47
2024-05-09T21:33:21.137Z,19.43
2024-05-09T21:35:28.947Z,22.60
2024-05-09T21:37:39.451Z,20.60
2024-05-09T21:39:47.996Z,17.57
2024-05-09T21:41:55.738Z,18.97
2024-05-09T21:44:08.889Z,22.30
2024-05-09T21:46:16.640Z,16.77
2024-05-09T21:48:26.992Z,20.90
2024-05-09T21:50:40.250Z,21.20
2024-05-09T21:52:52.452Z,20.23
2024-05-09T21:55:00.099Z,20.30
2024-05-09T21:57:11.131Z,20.87
2024-05-09T21:59:21.594Z,23.80
2024-05-09T22:01:33.961Z,23.60
2024-05-09T22:03:42.000Z,21.20
2024-05-09T22:05:52.467Z,15.97
2024-05-09T22:08:00.266Z,19.07
2024-05-09T22:10:20.023Z,18.10
2024-05-09T22:12:34.107Z,19.33
2024-05-09T22:14:48.191Z,20.30
2024-05-09T22:16:55.889Z,19.07
2024-05-09T22:19:06.467Z,18.27
2024-05-09T22:21:14.164Z,19.83
2024-05-09T22:23:24.472Z,19.13
2024-05-09T22:25:32.739Z,17.80
2024-05-09T22:27:43.378Z,20.67
2024-05-09T22:29:53.795Z,18.23
2024-05-09T22:32:04.106Z,19.20
2024-05-09T22:34:11.860Z,18.60
2024-05-09T22:36:22.351Z,17.13
2024-05-09T22:38:30.001Z,19.80
2024-05-09T22:40:47.411Z,19.13
2024-05-09T22:42:57.321Z,19.33
2024-05-09T22:45:10.482Z,16.47
2024-05-09T22:47:18.270Z,17.57
2024-05-09T22:49:28.665Z,16.83
2024-05-09T22:51:36.409Z,19.27
2024-05-09T22:53:46.697Z,17.63
2024-05-09T22:55:54.976Z,20.03
2024-05-09T22:58:05.451Z,17.53
2024-05-09T23:00:18.790Z,18.27
2024-05-09T23:02:29.548Z,19.10
2024-05-09T23:04:39.042Z,17.60
2024-05-09T23:06:49.540Z,16.43
2024-05-09T23:08:57.321Z,19.53
2024-05-09T23:11:08.740Z,17.30
2024-05-09T23:13:16.499Z,16.33
2024-05-09T23:15:29.526Z,14.17
2024-05-09T23:17:37.579Z,16.37
2024-05-09T23:19:48.056Z,20.27
2024-05-09T23:21:55.740Z,17.73
2024-05-09T23:24:06.092Z,19.57
2024-05-09T23:26:13.761Z,17.67
2024-05-09T23:28:24.154Z,21.47
2024-05-09T23:30:38.707Z,16.07
2024-05-09T23:32:51.240Z,19.00
2024-05-09T23:34:59.056Z,16.63
2024-05-09T23:37:10.934Z,15.40
2024-05-09T23:39:19.498Z,19.40
2024-05-09T23:41:29.943Z,17.60
2024-05-09T23:43:37.586Z,17.83
2024-05-09T23:45:50.605Z,17.43
2024-05-09T23:47:58.903Z,18.03
2024-05-09T23:50:16.712Z,20.93
2024-05-09T23:52:31.181Z,16.50
2024-05-09T23:54:42.385Z,14.83
2024-05-09T23:56:50.110Z,17.03
2024-05-09T23:59:00.748Z,18.00
